sensor_id;sensor_type;location;lat;lon;timestamp;pressure;altitude;pressure_sealevel;temperature;humidity
6829;BME280;17930;48.592;8.868;2023-02-01T00:00:14;97491.53;;;2.94;100.00
6829;BME280;17930;48.592;8.868;2023-02-01T00:02:41;97487.78;;;2.97;100.00
6829;BME280;17930;48.592;8.868;2023-02-01T00:05:09;97487.50;;;3.04;100.00
6829;BME280;17930;48.592;8.868;2023-02-01T00:07:36;97491.69;;;2.99;100.00
6829;BME280;17930;48.592;8.868;2023-02-01T00:10:04;97491.16;;;2.91;100.00
6829;BME280;17930;48.592;8.868;2023-02-01T00:12:33;97483.19;;;2.99;100.00
6829;BME280;17930;48.592;8.868;2023-02-01T00:14:59;97476.44;;;2.98;100.00
6829;BME280;17930;48.592;8.868;2023-02-01T00:17:26;97476.28;;;2.93;100.00
6829;BME280;17930;48.592;8.868;2023-02-01T00:19:53;97474.28;;;2.95;100.00
6829;BME280;17930;48.592;8.868;2023-02-01T00:22:19;97474.50;;;2.93;100.00
6829;BME280;17930;48.592;8.868;2023-02-01T00:24:46;97469.91;;;3.02;100.00
6829;BME280;17930;48.592;8.868;2023-02-01T00:27:13;97467.34;;;2.95;100.00
6829;BME280;17930;48.592;8.868;2023-02-01T00:29:44;97473.31;;;2.89;100.00
6829;BME280;17930;48.592;8.868;2023-02-01T00:32:11;97470.13;;;2.94;100.00
6829;BME280;17930;48.592;8.868;2023-02-01T00:34:38;97472.47;;;3.02;100.00
6829;BME280;17930;48.592;8.868;2023-02-01T00:37:05;97470.13;;;2.94;100.00
6829;BME280;17930;48.592;8.868;2023-02-01T00:39:32;97464.59;;;2.90;100.00
6829;BME280;17930;48.592;8.868;2023-02-01T00:41:59;97463.22;;;2.94;100.00
6829;BME280;17930;48.592;8.868;2023-02-01T00:44:27;97450.94;;;2.90;100.00
6829;BME280;17930;48.592;8.868;2023-02-01T00:47:00;97438.28;;;2.88;100.00
6829;BME280;17930;48.592;8.868;2023-02-01T00:49:27;97434.91;;;2.88;100.00
6829;BME280;17930;48.592;8.868;2023-02-01T00:51:53;97436.16;;;2.79;100.00
6829;BME280;17930;48.592;8.868;2023-02-01T00:54:21;97432.16;;;2.83;100.00
6829;BME280;17930;48.592;8.868;2023-02-01T00:56:47;97429.59;;;2.83;100.00
6829;BME280;17930;48.592;8.868;2023-02-01T00:59:14;97430.41;;;2.77;100.00
6829;BME280;17930;48.592;8.868;2023-02-01T01:01:41;97431.75;;;2.86;100.00
6829;BME280;17930;48.592;8.868;2023-02-01T01:04:09;97429.00;;;2.81;100.00
6829;BME280;17930;48.592;8.868;2023-02-01T01:06:36;97419.56;;;2.68;100.00
6829;BME280;17930;48.592;8.868;2023-02-01T01:09:04;97431.06;;;2.66;100.00
6829;BME280;17930;48.592;8.868;2023-02-01T01:11:34;97434.63;;;2.65;100.00
6829;BME280;17930;48.592;8.868;2023-02-01T01:14:02;97430.66;;;2.69;100.00
6829;BME280;17930;48.592;8.868;2023-02-01T01:16:30;97432.59;;;2.73;100.00
6829;BME280;17930;48.592;8.868;2023-02-01T01:18:58;97436.56;;;2.76;100.00
6829;BME280;17930;48.592;8.868;2023-02-01T01:21:26;97436.56;;;2.76;100.00
6829;BME280;17930;48.592;8.868;2023-02-01T01:23:54;97437.31;;;2.83;100.00
6829;BME280;17930;48.592;8.868;2023-02-01T01:26:22;97425.78;;;2.85;100.00
6829;BME280;17930;48.592;8.868;2023-02-01T01:28:50;97419.66;;;2.86;100.00
6829;BME280;17930;48.592;8.868;2023-02-01T01:31:19;97410.72;;;2.89;100.00
6829;BME280;17930;48.592;8.868;2023-02-01T01:33:48;97408.72;;;2.91;100.00
6829;BME280;17930;48.592;8.868;2023-02-01T01:36:15;97402.34;;;3.00;100.00
6829;BME280;17930;48.592;8.868;2023-02-01T01:38:44;97402.41;;;2.87;100.00
6829;BME280;17930;48.592;8.868;2023-02-01T01:41:15;97404.41;;;2.85;100.00
6829;BME280;17930;48.592;8.868;2023-02-01T01:43:51;97397.25;;;2.87;100.00
6829;BME280;17930;48.592;8.868;2023-02-01T01:46:19;97403.22;;;2.87;100.00
6829;BME280;17930;48.592;8.868;2023-02-01T01:48:50;97405.13;;;2.98;100.00
6829;BME280;17930;48.592;8.868;2023-02-01T01:51:20;97406.34;;;2.96;100.00
6829;BME280;17930;48.592;8.868;2023-02-01T01:54:07;97406.75;;;2.93;100.00
6829;BME280;17930;48.592;8.868;2023-02-01T01:56:35;97410.69;;;2.95;100.00
6829;BME280;17930;48.592;8.868;2023-02-01T01:59:02;97393.50;;;3.13;100.00
6829;BME280;17930;48.592;8.868;2023-02-01T02:01:30;97397.13;;;3.06;100.00
6829;BME280;17930;48.592;8.868;2023-02-01T02:03:58;97391.97;;;3.12;100.00
6829;BME280;17930;48.592;8.868;2023-02-01T02:06:32;97387.22;;;3.09;100.00
6829;BME280;17930;48.592;8.868;2023-02-01T02:09:03;97385.41;;;3.16;100.00
6829;BME280;17930;48.592;8.868;2023-02-01T02:11:30;97380.81;;;3.18;100.00
6829;BME280;17930;48.592;8.868;2023-02-01T02:13:57;97376.09;;;3.15;100.00
6829;BME280;17930;48.592;8.868;2023-02-01T02:16:58;97370.50;;;3.18;100.00
6829;BME280;17930;48.592;8.868;2023-02-01T02:19:45;97373.72;;;3.14;100.00
6829;BME280;17930;48.592;8.868;2023-02-01T02:22:48;97377.50;;;3.11;100.00
6829;BME280;17930;48.592;8.868;2023-02-01T02:25:36;97372.91;;;3.13;100.00
6829;BME280;17930;48.592;8.868;2023-02-01T02:28:18;97369.34;;;3.14;100.00
6829;BME280;17930;48.592;8.868;2023-02-01T02:31:22;97368.97;;;3.11;100.00
6829;BME280;17930;48.592;8.868;2023-02-01T02:34:01;97369.19;;;3.09;100.00
6829;BME280;17930;48.592;8.868;2023-02-01T02:36:38;97362.66;;;3.07;100.00
6829;BME280;17930;48.592;8.868;2023-02-01T02:39:16;97362.22;;;3.16;100.00
6829;BME280;17930;48.592;8.868;2023-02-01T02:41:53;97365.44;;;3.05;100.00
6829;BME280;17930;48.592;8.868;2023-02-01T02:44:47;97373.00;;;3.01;100.00
6829;BME280;17930;48.592;8.868;2023-02-01T02:47:34;97362.81;;;3.12;100.00
6829;BME280;17930;48.592;8.868;2023-02-01T02:50:11;97361.78;;;3.19;100.00
6829;BME280;17930;48.592;8.868;2023-02-01T02:53:15;97359.34;;;3.24;100.00
6829;BME280;17930;48.592;8.868;2023-02-01T02:56:01;97351.16;;;3.09;100.00
6829;BME280;17930;48.592;8.868;2023-02-01T02:58:47;97358.72;;;3.04;100.00
6829;BME280;17930;48.592;8.868;2023-02-01T03:01:33;97360.66;;;3.09;100.00
6829;BME280;17930;48.592;8.868;2023-02-01T03:04:17;97339.09;;;3.03;100.00
6829;BME280;17930;48.592;8.868;2023-02-01T03:06:47;97347.84;;;3.03;100.00
6829;BME280;17930;48.592;8.868;2023-02-01T03:09:18;97345.63;;;3.06;100.00
6829;BME280;17930;48.592;8.868;2023-02-01T03:11:49;97347.66;;;2.98;100.00
6829;BME280;17930;48.592;8.868;2023-02-01T03:14:38;97342.31;;;2.99;100.00
6829;BME280;17930;48.592;8.868;2023-02-01T03:17:11;97342.84;;;3.07;100.00
6829;BME280;17930;48.592;8.868;2023-02-01T03:19:41;97337.69;;;3.07;100.00
6829;BME280;17930;48.592;8.868;2023-02-01T03:22:17;97343.25;;;3.04;100.00
6829;BME280;17930;48.592;8.868;2023-02-01T03:24:49;97342.50;;;2.98;100.00
6829;BME280;17930;48.592;8.868;2023-02-01T03:27:21;97352.03;;;2.97;100.00
6829;BME280;17930;48.592;8.868;2023-02-01T03:29:52;97353.19;;;3.01;100.00
6829;BME280;17930;48.592;8.868;2023-02-01T03:32:21;97356.00;;;3.00;100.00
6829;BME280;17930;48.592;8.868;2023-02-01T03:34:48;97355.03;;;3.18;100.00
6829;BME280;17930;48.592;8.868;2023-02-01T03:37:22;97359.81;;;3.15;100.00
6829;BME280;17930;48.592;8.868;2023-02-01T03:39:53;97347.56;;;3.10;100.00
6829;BME280;17930;48.592;8.868;2023-02-01T03:42:27;97343.22;;;3.11;100.00
6829;BME280;17930;48.592;8.868;2023-02-01T03:45:01;97345.16;;;3.15;100.00
6829;BME280;17930;48.592;8.868;2023-02-01T03:47:34;97346.16;;;3.14;100.00
6829;BME280;17930;48.592;8.868;2023-02-01T03:50:05;97333.53;;;3.31;100.00
6829;BME280;17930;48.592;8.868;2023-02-01T03:52:39;97328.75;;;3.34;100.00
6829;BME280;17930;48.592;8.868;2023-02-01T03:55:08;97326.03;;;3.29;100.00
6829;BME280;17930;48.592;8.868;2023-02-01T03:57:41;97314.56;;;3.25;100.00
6829;BME280;17930;48.592;8.868;2023-02-01T04:00:16;97306.59;;;3.27;100.00
6829;BME280;17930;48.592;8.868;2023-02-01T04:02:43;97301.97;;;3.35;100.00
6829;BME280;17930;48.592;8.868;2023-02-01T04:05:10;97302.09;;;3.40;100.00
6829;BME280;17930;48.592;8.868;2023-02-01T04:07:38;97299.44;;;3.29;100.00
6829;BME280;17930;48.592;8.868;2023-02-01T04:10:06;97289.31;;;3.34;100.00
6829;BME280;17930;48.592;8.868;2023-02-01T04:12:33;97303.81;;;3.28;100.00
6829;BME280;17930;48.592;8.868;2023-02-01T04:14:59;97310.41;;;3.24;100.00
6829;BME280;17930;48.592;8.868;2023-02-01T04:17:26;97302.31;;;3.21;100.00
6829;BME280;17930;48.592;8.868;2023-02-01T04:19:53;97305.44;;;3.23;100.00
6829;BME280;17930;48.592;8.868;2023-02-01T04:22:19;97316.13;;;3.26;100.00
6829;BME280;17930;48.592;8.868;2023-02-01T04:24:47;97321.84;;;3.28;100.00
6829;BME280;17930;48.592;8.868;2023-02-01T04:27:14;97328.00;;;3.27;100.00
6829;BME280;17930;48.592;8.868;2023-02-01T04:29:41;97339.94;;;3.22;100.00
6829;BME280;17930;48.592;8.868;2023-02-01T04:32:08;97334.31;;;3.31;100.00
6829;BME280;17930;48.592;8.868;2023-02-01T04:34:35;97333.47;;;3.37;100.00
6829;BME280;17930;48.592;8.868;2023-02-01T04:37:02;97334.88;;;3.33;100.00
6829;BME280;17930;48.592;8.868;2023-02-01T04:39:28;97323.16;;;3.37;100.00
6829;BME280;17930;48.592;8.868;2023-02-01T04:41:56;97327.56;;;3.30;100.00
6829;BME280;17930;48.592;8.868;2023-02-01T04:44:23;97318.44;;;3.34;100.00
6829;BME280;17930;48.592;8.868;2023-02-01T04:46:50;97322.41;;;3.30;100.00
6829;BME280;17930;48.592;8.868;2023-02-01T04:49:17;97315.06;;;3.34;100.00
6829;BME280;17930;48.592;8.868;2023-02-01T04:51:45;97297.47;;;3.31;100.00
6829;BME280;17930;48.592;8.868;2023-02-01T04:54:12;97316.84;;;3.33;100.00
6829;BME280;17930;48.592;8.868;2023-02-01T04:56:39;97322.00;;;3.33;100.00
6829;BME280;17930;48.592;8.868;2023-02-01T04:59:07;97325.72;;;3.37;100.00
6829;BME280;17930;48.592;8.868;2023-02-01T05:01:34;97319.03;;;3.36;100.00
6829;BME280;17930;48.592;8.868;2023-02-01T05:04:01;97312.84;;;3.37;100.00
6829;BME280;17930;48.592;8.868;2023-02-01T05:06:27;97313.47;;;3.33;100.00
6829;BME280;17930;48.592;8.868;2023-02-01T05:08:54;97313.28;;;3.34;100.00
6829;BME280;17930;48.592;8.868;2023-02-01T05:11:21;97306.13;;;3.36;100.00
6829;BME280;17930;48.592;8.868;2023-02-01T05:14:06;97302.97;;;3.34;100.00
6829;BME280;17930;48.592;8.868;2023-02-01T05:16:33;97299.75;;;3.39;100.00
6829;BME280;17930;48.592;8.868;2023-02-01T05:19:00;97302.91;;;3.41;100.00
6829;BME280;17930;48.592;8.868;2023-02-01T05:21:27;97307.22;;;3.47;100.00
6829;BME280;17930;48.592;8.868;2023-02-01T05:24:00;97291.38;;;3.43;100.00
6829;BME280;17930;48.592;8.868;2023-02-01T05:26:49;97294.53;;;3.45;100.00
6829;BME280;17930;48.592;8.868;2023-02-01T05:29:18;97309.41;;;3.43;100.00
6829;BME280;17930;48.592;8.868;2023-02-01T05:31:45;97318.72;;;3.44;100.00
6829;BME280;17930;48.592;8.868;2023-02-01T05:34:12;97317.13;;;3.43;100.00
6829;BME280;17930;48.592;8.868;2023-02-01T05:36:39;97327.44;;;3.43;100.00
6829;BME280;17930;48.592;8.868;2023-02-01T05:39:06;97338.06;;;3.53;100.00
6829;BME280;17930;48.592;8.868;2023-02-01T05:41:33;97340.63;;;3.53;100.00
6829;BME280;17930;48.592;8.868;2023-02-01T05:44:00;97346.81;;;3.52;100.00
6829;BME280;17930;48.592;8.868;2023-02-01T05:46:29;97349.97;;;3.54;100.00
6829;BME280;17930;48.592;8.868;2023-02-01T05:48:56;97343.22;;;3.53;100.00
6829;BME280;17930;48.592;8.868;2023-02-01T05:51:22;97348.75;;;3.56;100.00
6829;BME280;17930;48.592;8.868;2023-02-01T05:53:49;97347.97;;;3.56;100.00
6829;BME280;17930;48.592;8.868;2023-02-01T05:56:15;97351.56;;;3.55;100.00
6829;BME280;17930;48.592;8.868;2023-02-01T05:58:42;97353.91;;;3.56;100.00
6829;BME280;17930;48.592;8.868;2023-02-01T06:01:09;97355.13;;;3.54;100.00
6829;BME280;17930;48.592;8.868;2023-02-01T06:03:37;97357.88;;;3.59;100.00
6829;BME280;17930;48.592;8.868;2023-02-01T06:06:09;97353.13;;;3.56;100.00
6829;BME280;17930;48.592;8.868;2023-02-01T06:08:36;97357.91;;;3.53;100.00
6829;BME280;17930;48.592;8.868;2023-02-01T06:11:06;97364.44;;;3.55;100.00
6829;BME280;17930;48.592;8.868;2023-02-01T06:13:33;97359.50;;;3.54;100.00
6829;BME280;17930;48.592;8.868;2023-02-01T06:16:01;97357.56;;;3.49;100.00
6829;BME280;17930;48.592;8.868;2023-02-01T06:18:28;97361.13;;;3.48;100.00
6829;BME280;17930;48.592;8.868;2023-02-01T06:20:58;97376.16;;;3.51;100.00
6829;BME280;17930;48.592;8.868;2023-02-01T06:23:26;97369.06;;;3.47;100.00
6829;BME280;17930;48.592;8.868;2023-02-01T06:25:58;97367.28;;;3.47;100.00
6829;BME280;17930;48.592;8.868;2023-02-01T06:28:26;97379.66;;;3.39;100.00
6829;BME280;17930;48.592;8.868;2023-02-01T06:30:53;97366.41;;;3.35;100.00
6829;BME280;17930;48.592;8.868;2023-02-01T06:33:19;97358.47;;;3.37;100.00
6829;BME280;17930;48.592;8.868;2023-02-01T06:35:46;97347.19;;;3.31;100.00
6829;BME280;17930;48.592;8.868;2023-02-01T06:38:17;97365.97;;;3.38;100.00
6829;BME280;17930;48.592;8.868;2023-02-01T06:40:44;97363.44;;;3.32;100.00
6829;BME280;17930;48.592;8.868;2023-02-01T06:43:10;97369.19;;;3.34;100.00
6829;BME280;17930;48.592;8.868;2023-02-01T06:45:37;97367.03;;;3.31;100.00
6829;BME280;17930;48.592;8.868;2023-02-01T06:48:04;97348.94;;;3.37;100.00
6829;BME280;17930;48.592;8.868;2023-02-01T06:50:30;97354.56;;;3.28;100.00
6829;BME280;17930;48.592;8.868;2023-02-01T06:52:57;97355.78;;;3.25;100.00
6829;BME280;17930;48.592;8.868;2023-02-01T06:55:25;97363.94;;;3.22;100.00
6829;BME280;17930;48.592;8.868;2023-02-01T06:57:56;97363.66;;;3.30;100.00
6829;BME280;17930;48.592;8.868;2023-02-01T07:00:23;97359.63;;;3.41;100.00
6829;BME280;17930;48.592;8.868;2023-02-01T07:02:50;97355.03;;;3.43;100.00
6829;BME280;17930;48.592;8.868;2023-02-01T07:05:17;97353.81;;;3.45;100.00
6829;BME280;17930;48.592;8.868;2023-02-01T07:07:44;97368.44;;;3.51;100.00
6829;BME280;17930;48.592;8.868;2023-02-01T07:10:11;97351.56;;;3.55;100.00
6829;BME280;17930;48.592;8.868;2023-02-01T07:12:39;97349.53;;;3.57;100.00
6829;BME280;17930;48.592;8.868;2023-02-01T07:15:06;97355.94;;;3.55;100.00
6829;BME280;17930;48.592;8.868;2023-02-01T07:17:33;97370.59;;;3.54;100.00
6829;BME280;17930;48.592;8.868;2023-02-01T07:20:00;97376.72;;;3.53;100.00
6829;BME280;17930;48.592;8.868;2023-02-01T07:22:27;97387.03;;;3.53;100.00
6829;BME280;17930;48.592;8.868;2023-02-01T07:24:54;97393.53;;;3.62;100.00
6829;BME280;17930;48.592;8.868;2023-02-01T07:27:21;97388.38;;;3.62;100.00
6829;BME280;17930;48.592;8.868;2023-02-01T07:29:51;97380.13;;;3.54;100.00
6829;BME280;17930;48.592;8.868;2023-02-01T07:32:18;97367.97;;;3.60;100.00
6829;BME280;17930;48.592;8.868;2023-02-01T07:34:45;97366.59;;;3.58;100.00
6829;BME280;17930;48.592;8.868;2023-02-01T07:37:11;97390.94;;;3.62;100.00
6829;BME280;17930;48.592;8.868;2023-02-01T07:39:38;97396.31;;;3.60;100.00
6829;BME280;17930;48.592;8.868;2023-02-01T07:42:05;97395.09;;;3.63;100.00
6829;BME280;17930;48.592;8.868;2023-02-01T07:44:32;97393.09;;;3.65;100.00
6829;BME280;17930;48.592;8.868;2023-02-01T07:47:00;97388.72;;;3.65;100.00
6829;BME280;17930;48.592;8.868;2023-02-01T07:49:26;97388.47;;;3.73;100.00
6829;BME280;17930;48.592;8.868;2023-02-01T07:51:53;97381.66;;;3.79;100.00
6829;BME280;17930;48.592;8.868;2023-02-01T07:54:20;97399.28;;;3.82;100.00
6829;BME280;17930;48.592;8.868;2023-02-01T07:56:46;97396.41;;;3.90;100.00
6829;BME280;17930;48.592;8.868;2023-02-01T07:59:13;97382.53;;;3.91;100.00
6829;BME280;17930;48.592;8.868;2023-02-01T08:01:40;97394.13;;;4.00;100.00
6829;BME280;17930;48.592;8.868;2023-02-01T08:04:08;97387.13;;;4.06;100.00
6829;BME280;17930;48.592;8.868;2023-02-01T08:06:36;97380.69;;;4.15;100.00
6829;BME280;17930;48.592;8.868;2023-02-01T08:09:04;97369.06;;;4.24;100.00
6829;BME280;17930;48.592;8.868;2023-02-01T08:11:31;97367.63;;;4.28;100.00
6829;BME280;17930;48.592;8.868;2023-02-01T08:13:59;97376.16;;;4.29;100.00
6829;BME280;17930;48.592;8.868;2023-02-01T08:16:26;97368.88;;;4.37;100.00
6829;BME280;17930;48.592;8.868;2023-02-01T08:18:53;97378.28;;;4.50;100.00
6829;BME280;17930;48.592;8.868;2023-02-01T08:21:23;97379.09;;;4.61;100.00
6829;BME280;17930;48.592;8.868;2023-02-01T08:23:50;97373.28;;;4.66;100.00
6829;BME280;17930;48.592;8.868;2023-02-01T08:26:19;97362.94;;;4.66;100.00
6829;BME280;17930;48.592;8.868;2023-02-01T08:28:48;97355.38;;;4.82;100.00
6829;BME280;17930;48.592;8.868;2023-02-01T08:31:18;97372.97;;;4.74;100.00
6829;BME280;17930;48.592;8.868;2023-02-01T08:33:48;97376.47;;;4.79;100.00
6829;BME280;17930;48.592;8.868;2023-02-01T08:36:15;97384.13;;;4.86;100.00
6829;BME280;17930;48.592;8.868;2023-02-01T08:38:43;97391.31;;;4.84;100.00
6829;BME280;17930;48.592;8.868;2023-02-01T08:41:12;97389.28;;;4.86;100.00
6829;BME280;17930;48.592;8.868;2023-02-01T08:43:39;97392.47;;;4.88;100.00
6829;BME280;17930;48.592;8.868;2023-02-01T08:46:06;97389.66;;;4.89;100.00
6829;BME280;17930;48.592;8.868;2023-02-01T08:48:34;97392.72;;;4.98;100.00
6829;BME280;17930;48.592;8.868;2023-02-01T08:51:01;97385.75;;;4.98;100.00
6829;BME280;17930;48.592;8.868;2023-02-01T08:53:29;97401.03;;;5.00;100.00
6829;BME280;17930;48.592;8.868;2023-02-01T08:55:57;97401.59;;;4.90;100.00
6829;BME280;17930;48.592;8.868;2023-02-01T08:58:24;97397.19;;;4.91;100.00
6829;BME280;17930;48.592;8.868;2023-02-01T09:00:51;97399.22;;;4.89;100.00
6829;BME280;17930;48.592;8.868;2023-02-01T09:03:17;97398.19;;;4.90;100.00
6829;BME280;17930;48.592;8.868;2023-02-01T09:05:44;97400.34;;;4.93;100.00
6829;BME280;17930;48.592;8.868;2023-02-01T09:08:11;97403.94;;;4.92;100.00
6829;BME280;17930;48.592;8.868;2023-02-01T09:10:39;97402.81;;;4.88;100.00
6829;BME280;17930;48.592;8.868;2023-02-01T09:13:07;97409.44;;;4.95;100.00
6829;BME280;17930;48.592;8.868;2023-02-01T09:15:34;97409.66;;;4.94;100.00
6829;BME280;17930;48.592;8.868;2023-02-01T09:18:01;97416.53;;;5.00;100.00
6829;BME280;17930;48.592;8.868;2023-02-01T09:20:28;97424.50;;;4.98;100.00
6829;BME280;17930;48.592;8.868;2023-02-01T09:22:55;97420.22;;;4.92;100.00
6829;BME280;17930;48.592;8.868;2023-02-01T09:25:22;97418.41;;;4.93;100.00
6829;BME280;17930;48.592;8.868;2023-02-01T09:27:48;97421.00;;;4.93;100.00
6829;BME280;17930;48.592;8.868;2023-02-01T09:30:17;97418.56;;;4.98;100.00
6829;BME280;17930;48.592;8.868;2023-02-01T09:32:43;97424.63;;;4.92;100.00
6829;BME280;17930;48.592;8.868;2023-02-01T09:35:10;97431.34;;;4.93;100.00
6829;BME280;17930;48.592;8.868;2023-02-01T09:37:37;97425.72;;;4.96;100.00
6829;BME280;17930;48.592;8.868;2023-02-01T09:40:04;97432.84;;;5.00;100.00
6829;BME280;17930;48.592;8.868;2023-02-01T09:42:44;97432.75;;;5.07;100.00
6829;BME280;17930;48.592;8.868;2023-02-01T09:45:22;97421.88;;;5.16;100.00
6829;BME280;17930;48.592;8.868;2023-02-01T09:47:53;97431.25;;;5.28;100.00
6829;BME280;17930;48.592;8.868;2023-02-01T09:50:25;97447.00;;;5.38;100.00
6829;BME280;17930;48.592;8.868;2023-02-01T09:52:58;97422.72;;;5.39;100.00
6829;BME280;17930;48.592;8.868;2023-02-01T09:55:33;97422.59;;;5.34;100.00
6829;BME280;17930;48.592;8.868;2023-02-01T09:58:04;97430.59;;;5.44;100.00
6829;BME280;17930;48.592;8.868;2023-02-01T10:00:37;97445.97;;;5.39;100.00
6829;BME280;17930;48.592;8.868;2023-02-01T10:03:11;97434.06;;;5.38;100.00
6829;BME280;17930;48.592;8.868;2023-02-01T10:05:57;97435.78;;;5.44;100.00
6829;BME280;17930;48.592;8.868;2023-02-01T10:08:32;97441.47;;;5.35;100.00
6829;BME280;17930;48.592;8.868;2023-02-01T10:11:06;97432.16;;;5.45;100.00
6829;BME280;17930;48.592;8.868;2023-02-01T10:13:51;97428.94;;;5.61;100.00
6829;BME280;17930;48.592;8.868;2023-02-01T10:16:26;97434.69;;;5.74;100.00
6829;BME280;17930;48.592;8.868;2023-02-01T10:19:07;97447.63;;;5.74;100.00
6829;BME280;17930;48.592;8.868;2023-02-01T10:21:47;97456.69;;;5.95;100.00
6829;BME280;17930;48.592;8.868;2023-02-01T10:24:28;97464.75;;;5.87;100.00
6829;BME280;17930;48.592;8.868;2023-02-01T10:27:01;97462.84;;;5.94;100.00
6829;BME280;17930;48.592;8.868;2023-02-01T10:29:34;97472.63;;;5.92;100.00
6829;BME280;17930;48.592;8.868;2023-02-01T10:32:11;97482.09;;;5.86;100.00
6829;BME280;17930;48.592;8.868;2023-02-01T10:34:38;97476.03;;;5.92;100.00
6829;BME280;17930;48.592;8.868;2023-02-01T10:37:16;97476.00;;;5.81;100.00
6829;BME280;17930;48.592;8.868;2023-02-01T10:39:45;97478.03;;;5.79;100.00
6829;BME280;17930;48.592;8.868;2023-02-01T10:42:13;97472.72;;;5.74;100.00
6829;BME280;17930;48.592;8.868;2023-02-01T10:44:42;97477.47;;;5.77;100.00
6829;BME280;17930;48.592;8.868;2023-02-01T10:47:12;97474.56;;;5.85;100.00
6829;BME280;17930;48.592;8.868;2023-02-01T10:49:42;97474.00;;;5.94;100.00
6829;BME280;17930;48.592;8.868;2023-02-01T10:52:12;97476.34;;;5.96;100.00
6829;BME280;17930;48.592;8.868;2023-02-01T10:54:40;97469.72;;;6.00;100.00
6829;BME280;17930;48.592;8.868;2023-02-01T10:57:08;97465.53;;;5.99;100.00
6829;BME280;17930;48.592;8.868;2023-02-01T10:59:36;97467.03;;;5.95;100.00
6829;BME280;17930;48.592;8.868;2023-02-01T11:02:18;97461.03;;;5.83;100.00
6829;BME280;17930;48.592;8.868;2023-02-01T11:04:46;97463.06;;;5.81;100.00
6829;BME280;17930;48.592;8.868;2023-02-01T11:07:17;97452.50;;;5.94;100.00
6829;BME280;17930;48.592;8.868;2023-02-01T11:09:49;97448.91;;;5.95;100.00
6829;BME280;17930;48.592;8.868;2023-02-01T11:12:29;97437.06;;;5.87;100.00
6829;BME280;17930;48.592;8.868;2023-02-01T11:15:02;97448.22;;;5.88;100.00
6829;BME280;17930;48.592;8.868;2023-02-01T11:17:38;97447.31;;;5.94;100.00
6829;BME280;17930;48.592;8.868;2023-02-01T11:20:13;97452.81;;;5.86;100.00
6829;BME280;17930;48.592;8.868;2023-02-01T11:22:45;97450.00;;;5.76;100.00
6829;BME280;17930;48.592;8.868;2023-02-01T11:25:14;97449.28;;;5.69;100.00
6829;BME280;17930;48.592;8.868;2023-02-01T11:27:43;97445.06;;;5.86;100.00
6829;BME280;17930;48.592;8.868;2023-02-01T11:30:15;97442.38;;;5.92;100.00
6829;BME280;17930;48.592;8.868;2023-02-01T11:32:44;97437.88;;;5.88;100.00
6829;BME280;17930;48.592;8.868;2023-02-01T11:35:16;97426.84;;;5.81;100.00
6829;BME280;17930;48.592;8.868;2023-02-01T11:37:50;97428.31;;;5.88;100.00
6829;BME280;17930;48.592;8.868;2023-02-01T11:40:33;97427.97;;;5.96;100.00
6829;BME280;17930;48.592;8.868;2023-02-01T11:43:08;97425.47;;;6.12;100.00
6829;BME280;17930;48.592;8.868;2023-02-01T11:45:36;97426.50;;;6.23;100.00
6829;BME280;17930;48.592;8.868;2023-02-01T11:48:08;97414.47;;;6.56;100.00
6829;BME280;17930;48.592;8.868;2023-02-01T11:50:41;97415.44;;;6.27;100.00
6829;BME280;17930;48.592;8.868;2023-02-01T11:53:24;97391.44;;;6.32;100.00
6829;BME280;17930;48.592;8.868;2023-02-01T11:55:59;97388.28;;;6.41;100.00
6829;BME280;17930;48.592;8.868;2023-02-01T11:58:49;97385.16;;;6.16;100.00
6829;BME280;17930;48.592;8.868;2023-02-01T12:01:31;97384.50;;;6.10;100.00
6829;BME280;17930;48.592;8.868;2023-02-01T12:04:25;97377.84;;;6.25;100.00
6829;BME280;17930;48.592;8.868;2023-02-01T12:07:04;97392.59;;;6.02;100.00
6829;BME280;17930;48.592;8.868;2023-02-01T12:09:50;97377.75;;;6.09;100.00
6829;BME280;17930;48.592;8.868;2023-02-01T12:12:24;97365.84;;;6.08;100.00
6829;BME280;17930;48.592;8.868;2023-02-01T12:15:04;97371.78;;;6.08;100.00
6829;BME280;17930;48.592;8.868;2023-02-01T12:21:04;97364.78;;;6.20;100.00
6829;BME280;17930;48.592;8.868;2023-02-01T12:23:48;97375.53;;;6.01;100.00
6829;BME280;17930;48.592;8.868;2023-02-01T12:26:36;97375.75;;;5.88;100.00
6829;BME280;17930;48.592;8.868;2023-02-01T12:29:23;97387.34;;;5.85;100.00
6829;BME280;17930;48.592;8.868;2023-02-01T12:32:00;97394.28;;;5.73;100.00
6829;BME280;17930;48.592;8.868;2023-02-01T12:34:50;97395.22;;;5.79;100.00
6829;BME280;17930;48.592;8.868;2023-02-01T12:37:30;97392.75;;;5.84;100.00
6829;BME280;17930;48.592;8.868;2023-02-01T12:40:06;97388.78;;;5.93;100.00
6829;BME280;17930;48.592;8.868;2023-02-01T12:42:38;97395.44;;;5.77;100.00
6829;BME280;17930;48.592;8.868;2023-02-01T12:45:12;97399.44;;;5.73;100.00
6829;BME280;17930;48.592;8.868;2023-02-01T12:47:42;97388.44;;;5.66;100.00
6829;BME280;17930;48.592;8.868;2023-02-01T12:50:15;97381.34;;;5.62;100.00
6829;BME280;17930;48.592;8.868;2023-02-01T12:52:50;97382.69;;;5.53;100.00
6829;BME280;17930;48.592;8.868;2023-02-01T12:55:20;97386.19;;;5.58;100.00
6829;BME280;17930;48.592;8.868;2023-02-01T12:57:51;97373.56;;;5.51;100.00
6829;BME280;17930;48.592;8.868;2023-02-01T13:00:25;97387.31;;;5.51;100.00
6829;BME280;17930;48.592;8.868;2023-02-01T13:02:59;97377.97;;;5.50;100.00
6829;BME280;17930;48.592;8.868;2023-02-01T13:05:28;97370.75;;;5.52;100.00
6829;BME280;17930;48.592;8.868;2023-02-01T13:08:02;97371.78;;;5.51;100.00
6829;BME280;17930;48.592;8.868;2023-02-01T13:10:34;97374.38;;;5.51;100.00
6829;BME280;17930;48.592;8.868;2023-02-01T13:13:08;97368.53;;;5.44;100.00
6829;BME280;17930;48.592;8.868;2023-02-01T13:15:40;97384.59;;;5.46;100.00
6829;BME280;17930;48.592;8.868;2023-02-01T13:18:13;97390.53;;;5.35;100.00
6829;BME280;17930;48.592;8.868;2023-02-01T13:20:47;97391.44;;;5.29;100.00
6829;BME280;17930;48.592;8.868;2023-02-01T13:23:22;97400.78;;;5.30;100.00
6829;BME280;17930;48.592;8.868;2023-02-01T13:25:51;97393.47;;;5.27;100.00
6829;BME280;17930;48.592;8.868;2023-02-01T13:28:24;97396.94;;;5.21;100.00
6829;BME280;17930;48.592;8.868;2023-02-01T13:31:18;97379.09;;;5.31;100.00
6829;BME280;17930;48.592;8.868;2023-02-01T13:34:01;97375.00;;;5.24;100.00